Nearby METAR Reports

 

KSJC - San Jose, California, USA
Distance from station: NE 9mi, 14km
Updated: Thu, 25-Apr-2019 2:53pm PDT
Few Clouds
Few Clouds
 Wind from NNW
Wind: NNW 13 mph , 20 km/h
Temperature: 75°F , 24°C
Dew Point: 61°F , 16°C
Humidity: 61%
Barometer: 29.93 inHg , 1013.5 hPa
Clouds: Few Clouds
Visibility: 10 miles , 16 km
Cloud details: Few Clouds 100 ft
Few Clouds 5500 ft
Few Clouds 9000 ft
2019/04/25 21:53 KSJC 252153Z 33011KT 10SM FEW001 FEW055 FEW090 24/16 A2993 RMK AO2 SLP136 HZ FEW001 TCU DSNT SE T02440161 $
KNUQ - Moffett Nas/Mtn, California, USA
Distance from station: N 9mi, 14km
Updated: Thu, 25-Apr-2019 2:56pm PDT
Clear
Clear
 Wind from N
Wind: N 13 mph , 20 km/h
Temperature: 72°F , 22°C
Dew Point: 57°F , 14°C
Humidity: 61%
Barometer: 29.95 inHg , 1014.2 hPa
Clouds: Clear
Visibility: 10 miles , 16 km
2019/04/25 21:56 KNUQ 252156Z 35011KT 10SM CLR 22/14 A2995 RMK AO2 SLP145 T02220144 $
 
KPAO - Palo Alto, California, USA
Distance from station: NNW 14mi, 23km
Updated: Thu, 25-Apr-2019 12:47pm PDT
NOT Current
Haze, Clear
Haze, Clear
 Wind from NNW
Wind: NNW 10 mph , 17 km/h
Temperature: 66°F , 19°C
Dew Point: 57°F , 14°C
Humidity: 73%
Barometer: 29.96 inHg , 1014.6 hPa
Summary: Haze
Clouds: Clear
Visibility: 7 miles , 11 km
2019/04/25 19:47 KPAO 251947Z 33009KT 7SM HZ SKC 19/14 A2996
KRHV - San Jose/Reid, California, USA
Distance from station: ENE 12mi, 19km
Updated: Thu, 25-Apr-2019 2:47pm PDT
Clear
Clear
 Wind from NNW
Wind: NNW 10 mph , 17 km/h
Temperature: 82°F , 28°C
Heat Index: 81°F , 27°C
Dew Point: 55°F , 13°C
Humidity: 40%
Barometer: 29.93 inHg , 1013.5 hPa
Clouds: Clear
Visibility: 10 miles , 16 km
2019/04/25 21:47 KRHV 252147Z 33009KT 10SM SKC 28/13 A2993
 
KOAK - Oakland, California, USA
Distance from station: NNW 31mi, 50km
Updated: Thu, 25-Apr-2019 2:53pm PDT
Few Clouds
Few Clouds
 Wind from WNW
Wind: WNW 21 mph , 33 km/h
Temperature: 64°F , 18°C
Dew Point: 52°F , 11°C
Humidity: 64%
Barometer: 29.97 inHg , 1014.9 hPa
Clouds: Few Clouds
Visibility: 10 miles , 16 km
Cloud details: Few Clouds 3500 ft
Few Clouds 20000 ft
2019/04/25 21:53 KOAK 252153Z 29018KT 10SM FEW035 FEW200 18/11 A2997 RMK AO2 SLP147 T01780106
KSQL - San Carlos Airpo, California, USA
Distance from station: NW 21mi, 34km
Updated: Thu, 25-Apr-2019 2:47pm PDT
Haze, Clear
Haze, Clear
 Wind from NNW
Wind: NNW 10 mph , 17 km/h
Temperature: 72°F , 22°C
Dew Point: 55°F , 13°C
Humidity: 57%
Barometer: 29.95 inHg , 1014.2 hPa
Summary: Haze
Clouds: Clear
Visibility: 6 miles , 10 km
2019/04/25 21:47 KSQL 252147Z 34009KT 6SM HZ SKC 22/13 A2995
 
KSFO - San Francisco, California, USA
Distance from station: NW 30mi, 49km
Updated: Thu, 25-Apr-2019 2:56pm PDT
Partly cloudy
Partly cloudy
 Wind from WNW
Wind: WNW 23 mph , 37 km/h
Temperature: 61°F , 16°C
Dew Point: 50°F , 10°C
Humidity: 68%
Barometer: 29.95 inHg , 1014.2 hPa
Clouds: Partly cloudy
Visibility: 10 miles , 16 km
Cloud details: Few Clouds 500 ft
Few Clouds 4500 ft
Partly cloudy 20000 ft
2019/04/25 21:56 KSFO 252156Z 29020KT 10SM FEW005 FEW045 SCT200 16/10 A2995 RMK AO2 PK WND 30026/2151 SLP142 T01610100
KE16 - San Martin, California, USA
Distance from station: ESE 27mi, 43km
Updated: Thu, 25-Apr-2019 3:10pm PDT
Clear
Clear
 Wind from SSE
Wind: SSE 10 mph , 17 km/h
Temperature: 82°F , 28°C
Dew Point: 54°F , 12°C
Humidity: 37%
Barometer: 29.94 inHg , 1013.9 hPa
Clouds: Clear
Visibility: 10 miles , 16 km
2019/04/25 22:10 KE16 252210Z AUTO 15009KT 10SM CLR 28/12 A2994 RMK AO2
 
KWVI - Watsonville, California, USA
Distance from station: SSE 27mi, 44km
Updated: Thu, 25-Apr-2019 2:53pm PDT
Clear
Clear
 Wind from SW
Wind: SW 8 mph , 13 km/h
Temperature: 63°F , 17°C
Dew Point: 55°F , 13°C
Humidity: 77%
Barometer: 30.00 inHg , 1015.9 hPa
Clouds: Clear
Visibility: 10 miles , 16 km
2019/04/25 21:53 KWVI 252153Z AUTO 22007KT 10SM CLR 17/13 A3000 RMK AO2 SLP159 T01670133
KHAF - Half Moon Bay, California, USA
Distance from station: WNW 31mi, 50km
Updated: Thu, 25-Apr-2019 3:15pm PDT
Mist, Overcast
Mist, Overcast
 Wind from WNW
Wind: WNW 7 mph , 11 km/h
Temperature: 55°F , 13°C
Dew Point: 50°F , 10°C
Humidity: 82%
Barometer: 30.01 inHg , 1016.3 hPa
Summary: Mist
Clouds: Overcast
Visibility: 3 miles , 5 km
Cloud details: Overcast 600 ft
2019/04/25 22:15 KHAF 252215Z AUTO 29006KT 3SM BR OVC006 13/10 A3001 RMK AO2
 
KHWD - Hayward, California, USA
Distance from station: N 28mi, 44km
Updated: Thu, 25-Apr-2019 2:54pm PDT
Clear
Clear
 Wind from WNW
Wind: WNW 16 mph , 26 km/h
Temperature: 66°F , 19°C
Dew Point: 52°F , 11°C
Humidity: 60%
Barometer: 29.96 inHg , 1014.6 hPa
Clouds: Clear
Visibility: 10 miles , 16 km
2019/04/25 21:54 KHWD 252154Z 29014KT 10SM CLR 19/11 A2996 RMK AO2 SLP154 T01940111
KLVK - Livermore, California, USA
Distance from station: NNE 31mi, 51km
Updated: Thu, 25-Apr-2019 2:53pm PDT
Clear
Clear
 Wind from W
Wind: W 10 mph , 17 km/h
Temperature: 86°F , 30°C
Dew Point: 52°F , 11°C
Humidity: 31%
Barometer: 29.91 inHg , 1012.9 hPa
Clouds: Clear
Visibility: 10 miles , 16 km
2019/04/25 21:53 KLVK 252153Z 28009KT 10SM CLR 30/11 A2991 RMK AO2 SLP124 T03000111